createdAt,value
2022-12-12T00:00:08.761Z,992.69
2022-12-12T00:01:08.770Z,992.67
2022-12-12T00:02:08.809Z,992.69
2022-12-12T00:03:08.921Z,992.69
2022-12-12T00:04:08.739Z,992.69
2022-12-12T00:05:08.849Z,992.68
2022-12-12T00:06:08.689Z,992.68
2022-12-12T00:07:08.679Z,992.69
2022-12-12T00:08:08.803Z,992.66
2022-12-12T00:09:08.657Z,992.72
2022-12-12T00:10:08.680Z,992.63
2022-12-12T00:11:08.628Z,992.65
2022-12-12T00:12:08.628Z,992.68
2022-12-12T00:13:08.609Z,992.73
2022-12-12T00:14:08.607Z,992.69
2022-12-12T00:15:08.600Z,992.69
2022-12-12T00:16:08.648Z,992.75
2022-12-12T00:17:08.576Z,992.73
2022-12-12T00:18:08.559Z,992.72
2022-12-12T00:19:08.551Z,992.69
2022-12-12T00:20:08.537Z,992.65
2022-12-12T00:21:08.557Z,992.65
2022-12-12T00:22:08.528Z,992.60
2022-12-12T00:23:08.498Z,992.63
2022-12-12T00:24:08.500Z,992.62
2022-12-12T00:25:08.527Z,992.67
2022-12-12T00:26:08.574Z,992.76
2022-12-12T00:27:08.485Z,992.75
2022-12-12T00:28:08.452Z,992.75
2022-12-12T00:29:08.437Z,992.74
2022-12-12T00:30:08.426Z,992.69
2022-12-12T00:31:08.454Z,992.69
2022-12-12T00:32:08.412Z,992.67
2022-12-12T00:33:08.467Z,992.69
2022-12-12T00:34:08.376Z,992.70
2022-12-12T00:35:08.366Z,992.64
2022-12-12T00:36:08.357Z,992.66
2022-12-12T00:37:08.344Z,992.71
2022-12-12T00:38:08.359Z,992.63
2022-12-12T00:39:09.772Z,992.66
2022-12-12T00:40:08.313Z,992.66
2022-12-12T00:41:08.295Z,992.62
2022-12-12T00:42:08.295Z,992.69
2022-12-12T00:43:08.275Z,992.65
2022-12-12T00:44:08.335Z,992.70
2022-12-12T00:45:08.355Z,992.68
2022-12-12T00:46:08.618Z,992.71
2022-12-12T00:47:08.256Z,992.72
2022-12-12T00:48:08.233Z,992.76
2022-12-12T00:49:08.205Z,992.72
2022-12-12T00:50:08.235Z,992.75
2022-12-12T00:51:08.184Z,992.78
2022-12-12T00:52:08.177Z,992.74
2022-12-12T00:53:08.174Z,992.73
2022-12-12T00:54:08.156Z,992.75
2022-12-12T00:55:08.135Z,992.73
2022-12-12T00:56:08.153Z,992.73
2022-12-12T00:57:08.116Z,992.80
2022-12-12T00:58:08.104Z,992.76
2022-12-12T00:59:08.093Z,992.78
2022-12-12T01:00:08.103Z,992.78
2022-12-12T01:01:08.163Z,992.76
2022-12-12T01:02:08.150Z,992.79
2022-12-12T01:03:08.123Z,992.79
2022-12-12T01:04:08.036Z,992.79
2022-12-12T01:05:08.034Z,992.77
2022-12-12T01:06:08.020Z,992.83
2022-12-12T01:07:08.146Z,992.75
2022-12-12T01:08:08.046Z,992.79
2022-12-12T01:09:07.982Z,992.80
2022-12-12T01:10:07.973Z,992.81
2022-12-12T01:11:07.959Z,992.81
2022-12-12T01:12:07.952Z,992.84
2022-12-12T01:13:07.964Z,992.84
2022-12-12T01:14:07.933Z,992.84
2022-12-12T01:15:07.961Z,992.87
2022-12-12T01:16:07.917Z,992.86
2022-12-12T01:17:07.891Z,992.86
2022-12-12T01:18:07.886Z,992.86
2022-12-12T01:19:07.971Z,992.83
2022-12-12T01:20:07.861Z,992.82
2022-12-12T01:21:08.034Z,992.84
2022-12-12T01:22:07.845Z,992.82
2022-12-12T01:23:07.822Z,992.79
2022-12-12T01:24:07.906Z,992.80
2022-12-12T01:25:07.800Z,992.81
2022-12-12T01:26:07.789Z,992.81
2022-12-12T01:27:07.780Z,992.87
2022-12-12T01:28:07.767Z,992.87
2022-12-12T01:29:07.749Z,992.91
2022-12-12T01:30:07.771Z,992.85
2022-12-12T01:31:07.824Z,992.83
2022-12-12T01:32:07.722Z,992.82
2022-12-12T01:33:07.710Z,992.78
2022-12-12T01:34:08.032Z,992.81
2022-12-12T01:35:07.733Z,992.80
2022-12-12T01:36:07.746Z,992.82
2022-12-12T01:37:07.714Z,992.83
2022-12-12T01:38:07.758Z,992.87
2022-12-12T01:39:07.649Z,992.91
2022-12-12T01:40:07.697Z,992.91
2022-12-12T01:41:07.729Z,992.86
2022-12-12T01:42:07.628Z,992.87
2022-12-12T01:43:07.599Z,992.91
2022-12-12T01:44:07.670Z,992.88
2022-12-12T01:45:07.660Z,992.94
2022-12-12T01:46:07.642Z,992.92
2022-12-12T01:47:07.555Z,992.95
2022-12-12T01:48:07.559Z,992.96
2022-12-12T01:49:07.776Z,992.93
2022-12-12T01:50:07.521Z,992.96
2022-12-12T01:51:07.608Z,992.95
2022-12-12T01:52:07.497Z,992.89
2022-12-12T01:53:07.535Z,992.93
2022-12-12T01:54:07.526Z,992.93
2022-12-12T01:55:07.470Z,992.98
2022-12-12T01:56:07.447Z,992.99
2022-12-12T01:57:07.515Z,992.92
2022-12-12T01:58:07.445Z,992.95
2022-12-12T01:59:07.417Z,992.97
2022-12-12T02:00:07.503Z,992.98
2022-12-12T02:01:07.432Z,993.01
2022-12-12T02:02:07.504Z,993.00
2022-12-12T02:03:07.395Z,993.04
2022-12-12T02:04:07.423Z,993.00
2022-12-12T02:05:07.392Z,992.99
2022-12-12T02:06:07.335Z,992.99
2022-12-12T02:07:07.365Z,993.07
2022-12-12T02:08:07.372Z,993.08
2022-12-12T02:09:07.339Z,993.03
2022-12-12T02:10:07.285Z,993.02
2022-12-12T02:11:07.325Z,993.05
2022-12-12T02:12:07.277Z,993.05
2022-12-12T02:13:07.268Z,993.03
2022-12-12T02:14:07.429Z,993.04
2022-12-12T02:15:07.253Z,993.02
2022-12-12T02:16:07.244Z,993.00
2022-12-12T02:17:07.253Z,992.98
2022-12-12T02:18:12.394Z,993.03
2022-12-12T02:19:08.245Z,993.05
2022-12-12T02:20:07.211Z,993.03
2022-12-12T02:21:07.205Z,993.06
2022-12-12T02:22:07.166Z,993.01
2022-12-12T02:23:07.231Z,993.02
2022-12-12T02:24:07.137Z,993.03
2022-12-12T02:25:07.154Z,993.04
2022-12-12T02:26:07.142Z,993.07
2022-12-12T02:27:07.114Z,993.07
2022-12-12T02:28:07.120Z,993.09
2022-12-12T02:29:07.117Z,993.08
2022-12-12T02:30:07.134Z,993.03
2022-12-12T02:31:07.132Z,993.01
2022-12-12T02:32:07.071Z,993.06
2022-12-12T02:33:07.086Z,993.12
2022-12-12T02:34:07.081Z,993.09
2022-12-12T02:35:07.036Z,993.09
2022-12-12T02:36:07.061Z,993.10
2022-12-12T02:37:06.992Z,993.08
2022-12-12T02:38:06.973Z,993.13
2022-12-12T02:39:07.093Z,993.14
2022-12-12T02:40:06.952Z,993.10
2022-12-12T02:41:06.943Z,993.09
2022-12-12T02:42:06.929Z,993.08
2022-12-12T02:43:06.931Z,993.11
2022-12-12T02:44:06.912Z,993.11
2022-12-12T02:45:06.992Z,993.12
2022-12-12T02:46:06.889Z,993.13
2022-12-12T02:47:06.882Z,993.09
2022-12-12T02:48:06.869Z,993.09
2022-12-12T02:49:06.860Z,993.13
2022-12-12T02:50:06.842Z,993.03
2022-12-12T02:51:06.878Z,993.14
2022-12-12T02:52:06.820Z,993.14
2022-12-12T02:53:06.810Z,993.17
2022-12-12T02:54:06.800Z,993.18
2022-12-12T02:55:06.796Z,993.13
2022-12-12T02:56:06.859Z,993.10
2022-12-12T02:57:06.831Z,993.13
2022-12-12T02:58:06.747Z,993.09
2022-12-12T02:59:06.750Z,993.14
2022-12-12T03:00:06.793Z,993.15
2022-12-12T03:01:06.765Z,993.13
2022-12-12T03:02:06.798Z,993.14
2022-12-12T03:03:06.749Z,993.13
2022-12-12T03:04:06.688Z,993.13
2022-12-12T03:05:06.677Z,993.14
2022-12-12T03:06:06.658Z,993.14
2022-12-12T03:07:06.679Z,993.11
2022-12-12T03:08:06.743Z,993.14
2022-12-12T03:09:06.627Z,993.14
2022-12-12T03:10:06.618Z,993.14
2022-12-12T03:11:06.622Z,993.15
2022-12-12T03:12:06.589Z,993.14
2022-12-12T03:13:06.731Z,993.13
2022-12-12T03:14:06.779Z,993.15
2022-12-12T03:15:06.611Z,993.14
2022-12-12T03:16:06.642Z,993.17
2022-12-12T03:17:06.544Z,993.21
2022-12-12T03:18:06.529Z,993.20
2022-12-12T03:19:06.516Z,993.18
2022-12-12T03:20:06.518Z,993.13
2022-12-12T03:21:06.508Z,993.21
2022-12-12T03:22:06.486Z,993.18
2022-12-12T03:23:06.476Z,993.13
2022-12-12T03:24:06.458Z,993.18
2022-12-12T03:25:06.476Z,993.19
2022-12-12T03:26:06.436Z,993.17
2022-12-12T03:27:06.427Z,993.25
2022-12-12T03:28:06.416Z,993.17
2022-12-12T03:29:06.410Z,993.18
2022-12-12T03:30:06.385Z,993.16
2022-12-12T03:31:06.395Z,993.23
2022-12-12T03:32:06.366Z,993.17
2022-12-12T03:33:06.355Z,993.19
2022-12-12T03:34:06.349Z,993.20
2022-12-12T03:35:06.336Z,993.20
2022-12-12T03:36:06.345Z,993.15
2022-12-12T03:37:06.314Z,993.12
2022-12-12T03:38:06.304Z,993.12
2022-12-12T03:39:06.296Z,993.15
2022-12-12T03:40:06.297Z,993.11
2022-12-12T03:41:06.264Z,993.15
2022-12-12T03:42:06.275Z,993.20
2022-12-12T03:43:06.254Z,993.17
2022-12-12T03:44:06.234Z,993.19
2022-12-12T03:45:06.224Z,993.22
2022-12-12T03:46:06.262Z,993.15
2022-12-12T03:47:06.206Z,993.21
2022-12-12T03:48:06.203Z,993.24
2022-12-12T03:49:06.182Z,993.23
2022-12-12T03:50:06.169Z,993.19
2022-12-12T03:51:06.155Z,993.17
2022-12-12T03:52:06.142Z,993.18
2022-12-12T03:53:06.155Z,993.17
2022-12-12T03:54:06.124Z,993.17
2022-12-12T03:55:06.113Z,993.11
2022-12-12T03:56:06.092Z,993.13
2022-12-12T03:57:06.102Z,993.20
2022-12-12T03:58:06.072Z,993.12
2022-12-12T03:59:06.083Z,993.16
2022-12-12T04:00:06.052Z,993.20
2022-12-12T04:01:06.067Z,993.17
2022-12-12T04:02:06.076Z,993.15
2022-12-12T04:03:06.025Z,993.21
2022-12-12T04:04:06.011Z,993.16
2022-12-12T04:05:06.011Z,993.14
2022-12-12T04:06:05.981Z,993.18
2022-12-12T04:07:05.974Z,993.18
2022-12-12T04:08:06.014Z,993.15
2022-12-12T04:09:05.952Z,993.14
2022-12-12T04:10:05.938Z,993.19
2022-12-12T04:11:05.972Z,993.18
2022-12-12T04:12:05.915Z,993.20
2022-12-12T04:13:05.910Z,993.18
2022-12-12T04:14:05.891Z,993.17
2022-12-12T04:15:05.881Z,993.22
2022-12-12T04:16:05.872Z,993.28
2022-12-12T04:17:05.910Z,993.24
2022-12-12T04:18:05.841Z,993.29
2022-12-12T04:19:05.840Z,993.28
2022-12-12T04:20:05.840Z,993.24
2022-12-12T04:21:05.819Z,993.26
2022-12-12T04:22:05.800Z,993.24
2022-12-12T04:23:05.810Z,993.30
2022-12-12T04:24:05.809Z,993.27
2022-12-12T04:25:05.785Z,993.26
2022-12-12T04:26:05.758Z,993.24
2022-12-12T04:27:05.749Z,993.29
2022-12-12T04:28:05.756Z,993.31
2022-12-12T04:29:05.728Z,993.30
2022-12-12T04:30:05.709Z,993.29
2022-12-12T04:31:05.699Z,993.31
2022-12-12T04:32:05.755Z,993.29
2022-12-12T04:33:05.679Z,993.31
2022-12-12T04:34:05.705Z,993.34
2022-12-12T04:35:05.663Z,993.29
2022-12-12T04:36:05.647Z,993.39
2022-12-12T04:37:05.638Z,993.37
2022-12-12T04:38:05.626Z,993.39
2022-12-12T04:39:05.616Z,993.37
2022-12-12T04:40:05.617Z,993.40
2022-12-12T04:41:05.587Z,993.37
2022-12-12T04:42:05.575Z,993.36
2022-12-12T04:43:05.566Z,993.36
2022-12-12T04:44:05.557Z,993.39
2022-12-12T04:45:05.566Z,993.43
2022-12-12T04:46:05.580Z,993.40
2022-12-12T04:47:05.516Z,993.38
2022-12-12T04:48:05.506Z,993.34
2022-12-12T04:49:05.508Z,993.41
2022-12-12T04:50:05.485Z,993.39
2022-12-12T04:51:05.486Z,993.43
2022-12-12T04:52:05.463Z,993.43
2022-12-12T04:53:05.455Z,993.42
2022-12-12T04:54:05.438Z,993.45
2022-12-12T04:55:05.435Z,993.42
2022-12-12T04:56:05.445Z,993.47
2022-12-12T04:57:05.405Z,993.46
2022-12-12T04:58:05.398Z,993.48
2022-12-12T04:59:05.386Z,993.46
2022-12-12T05:00:05.366Z,993.52
2022-12-12T05:01:05.396Z,993.51
2022-12-12T05:02:05.444Z,993.52
2022-12-12T05:03:05.345Z,993.51
2022-12-12T05:04:05.324Z,993.49
2022-12-12T05:05:05.316Z,993.46
2022-12-12T05:06:05.304Z,993.46
2022-12-12T05:07:05.303Z,993.52
2022-12-12T05:08:05.375Z,993.49
2022-12-12T05:09:05.273Z,993.49
2022-12-12T05:10:05.254Z,993.50
2022-12-12T05:11:05.254Z,993.46
2022-12-12T05:12:05.239Z,993.52
2022-12-12T05:13:05.223Z,993.56
2022-12-12T05:14:05.234Z,993.53
2022-12-12T05:15:05.203Z,993.45
2022-12-12T05:16:05.204Z,993.53
2022-12-12T05:17:05.236Z,993.49
2022-12-12T05:18:05.169Z,993.47
2022-12-12T05:19:05.181Z,993.46
2022-12-12T05:20:05.194Z,993.50
2022-12-12T05:21:05.132Z,993.48
2022-12-12T05:22:05.122Z,993.47
2022-12-12T05:23:05.112Z,993.44
2022-12-12T05:24:05.105Z,993.49
2022-12-12T05:25:05.093Z,993.48
2022-12-12T05:26:05.105Z,993.45
2022-12-12T05:27:05.080Z,993.45
2022-12-12T05:28:05.062Z,993.48
2022-12-12T05:29:07.545Z,993.50
2022-12-12T05:30:05.031Z,993.45
2022-12-12T05:31:05.088Z,993.48
2022-12-12T05:32:05.022Z,993.47
2022-12-12T05:33:05.000Z,993.50
2022-12-12T05:34:04.993Z,993.47
2022-12-12T05:35:04.979Z,993.52
2022-12-12T05:36:04.972Z,993.56
2022-12-12T05:37:04.980Z,993.52
2022-12-12T05:38:04.941Z,993.52
2022-12-12T05:39:04.942Z,993.56
2022-12-12T05:40:11.977Z,993.57
2022-12-12T05:41:04.910Z,993.56
2022-12-12T05:42:04.899Z,993.58
2022-12-12T05:43:04.918Z,993.56
2022-12-12T05:44:04.889Z,993.62
2022-12-12T05:45:04.874Z,993.55
2022-12-12T05:46:04.923Z,993.62
2022-12-12T05:47:04.866Z,993.58
2022-12-12T05:48:04.885Z,993.57
2022-12-12T05:49:04.852Z,993.58
2022-12-12T05:50:04.809Z,993.66
2022-12-12T05:51:04.799Z,993.64
2022-12-12T05:52:04.789Z,993.61
2022-12-12T05:53:04.778Z,993.63
2022-12-12T05:54:04.918Z,993.61
2022-12-12T05:55:04.780Z,993.63
2022-12-12T05:56:04.787Z,993.65
2022-12-12T05:57:04.727Z,993.63
2022-12-12T05:58:04.727Z,993.63
2022-12-12T05:59:04.707Z,993.67
2022-12-12T06:00:04.740Z,993.68
2022-12-12T06:01:04.717Z,993.71
2022-12-12T06:02:04.711Z,993.66
2022-12-12T06:03:04.671Z,993.70
2022-12-12T06:04:04.716Z,993.68
2022-12-12T06:05:04.656Z,993.70
2022-12-12T06:06:04.634Z,993.70
2022-12-12T06:07:04.615Z,993.75
2022-12-12T06:08:04.657Z,993.72
2022-12-12T06:09:04.596Z,993.74
2022-12-12T06:10:04.586Z,993.76
2022-12-12T06:11:04.598Z,993.75
2022-12-12T06:12:04.566Z,993.75
2022-12-12T06:13:04.558Z,993.76
2022-12-12T06:14:04.573Z,993.79
2022-12-12T06:15:04.538Z,993.77
2022-12-12T06:16:04.590Z,993.80
2022-12-12T06:17:04.516Z,993.76
2022-12-12T06:18:04.498Z,993.84
2022-12-12T06:19:04.476Z,993.87
2022-12-12T06:20:04.474Z,993.82
2022-12-12T06:21:04.457Z,993.85
2022-12-12T06:22:04.473Z,993.85
2022-12-12T06:23:04.454Z,993.91
2022-12-12T06:24:04.445Z,993.84
2022-12-12T06:25:04.420Z,993.88
2022-12-12T06:26:04.404Z,993.89
2022-12-12T06:27:04.395Z,993.86
2022-12-12T06:28:04.411Z,993.85
2022-12-12T06:29:04.377Z,993.87
2022-12-12T06:30:04.356Z,993.86
2022-12-12T06:31:09.708Z,993.90
2022-12-12T06:32:05.345Z,993.89
2022-12-12T06:33:04.324Z,993.90
2022-12-12T06:34:04.345Z,993.87
2022-12-12T06:35:04.342Z,993.91
2022-12-12T06:36:04.304Z,993.90
2022-12-12T06:37:04.275Z,993.90
2022-12-12T06:38:04.274Z,993.87
2022-12-12T06:39:04.273Z,993.91
2022-12-12T06:40:04.254Z,993.89
2022-12-12T06:41:04.233Z,993.87
2022-12-12T06:42:04.226Z,993.92
2022-12-12T06:43:04.275Z,993.90
2022-12-12T06:44:04.241Z,994.02
2022-12-12T06:45:04.194Z,993.95
2022-12-12T06:46:04.241Z,993.97
2022-12-12T06:47:04.197Z,994.02
2022-12-12T06:48:04.162Z,993.99
2022-12-12T06:49:04.213Z,994.02
2022-12-12T06:50:04.164Z,994.01
2022-12-12T06:51:04.123Z,994.00
2022-12-12T06:52:04.110Z,994.02
2022-12-12T06:53:04.091Z,993.98
2022-12-12T06:54:04.091Z,994.01
2022-12-12T06:55:04.101Z,994.00
2022-12-12T06:56:04.070Z,994.03
2022-12-12T06:57:04.067Z,994.06
2022-12-12T06:58:04.081Z,994.04
2022-12-12T06:59:04.040Z,994.08
2022-12-12T07:00:04.025Z,994.09
2022-12-12T07:01:04.061Z,994.09
2022-12-12T07:02:04.066Z,994.13
2022-12-12T07:03:04.044Z,994.10
2022-12-12T07:04:03.980Z,994.17
2022-12-12T07:05:03.972Z,994.14
2022-12-12T07:06:03.959Z,994.19
2022-12-12T07:07:03.959Z,994.16
2022-12-12T07:08:03.998Z,994.16
2022-12-12T07:09:03.919Z,994.19
2022-12-12T07:10:03.928Z,994.16
2022-12-12T07:11:03.900Z,994.22
2022-12-12T07:12:03.908Z,994.16
2022-12-12T07:13:03.869Z,994.19
2022-12-12T07:14:03.920Z,994.14
2022-12-12T07:15:03.849Z,994.18
2022-12-12T07:16:03.922Z,994.19
2022-12-12T07:17:03.831Z,994.20
2022-12-12T07:18:03.851Z,994.22
2022-12-12T07:19:03.820Z,994.21
2022-12-12T07:20:03.805Z,994.28
2022-12-12T07:21:03.815Z,994.26
2022-12-12T07:22:09.313Z,994.26
2022-12-12T07:23:04.783Z,994.29
2022-12-12T07:24:03.768Z,994.29
2022-12-12T07:25:03.738Z,994.29
2022-12-12T07:26:03.728Z,994.28
2022-12-12T07:27:03.720Z,994.35
2022-12-12T07:28:03.726Z,994.43
2022-12-12T07:29:03.763Z,994.36
2022-12-12T07:30:03.698Z,994.37
2022-12-12T07:31:03.755Z,994.35
2022-12-12T07:32:03.700Z,994.38
2022-12-12T07:33:03.650Z,994.37
2022-12-12T07:34:03.663Z,994.42
2022-12-12T07:35:03.716Z,994.44
2022-12-12T07:36:03.623Z,994.41
2022-12-12T07:37:03.616Z,994.41
2022-12-12T07:38:03.632Z,994.43
2022-12-12T07:39:03.768Z,994.43
2022-12-12T07:40:03.565Z,994.41
2022-12-12T07:41:03.585Z,994.44
2022-12-12T07:42:03.576Z,994.45
2022-12-12T07:43:03.736Z,994.46
2022-12-12T07:44:03.587Z,994.54
2022-12-12T07:45:03.518Z,994.47
2022-12-12T07:46:03.604Z,994.48
2022-12-12T07:47:03.529Z,994.52
2022-12-12T07:48:03.493Z,994.42
2022-12-12T07:49:03.464Z,994.53
2022-12-12T07:50:03.470Z,994.43
2022-12-12T07:51:03.470Z,994.50
2022-12-12T07:52:03.474Z,994.44
2022-12-12T07:53:03.468Z,994.52
2022-12-12T07:54:03.503Z,994.47
2022-12-12T07:55:03.433Z,994.45
2022-12-12T07:56:03.384Z,994.47
2022-12-12T07:57:03.396Z,994.47
2022-12-12T07:58:03.423Z,994.43
2022-12-12T07:59:03.370Z,994.44
2022-12-12T08:00:03.373Z,994.48
2022-12-12T08:01:03.365Z,994.46
2022-12-12T08:02:03.386Z,994.47
2022-12-12T08:03:03.313Z,994.46
2022-12-12T08:04:04.303Z,994.45
2022-12-12T08:05:03.357Z,994.47
2022-12-12T08:06:03.282Z,994.47
2022-12-12T08:07:08.297Z,994.50
2022-12-12T08:08:04.274Z,994.48
2022-12-12T08:09:03.337Z,994.52
2022-12-12T08:10:03.251Z,994.51
2022-12-12T08:11:03.215Z,994.52
2022-12-12T08:12:03.222Z,994.50
2022-12-12T08:13:03.239Z,994.47
2022-12-12T08:14:05.034Z,994.46
2022-12-12T08:15:03.229Z,994.50
2022-12-12T08:16:03.231Z,994.54
2022-12-12T08:17:03.152Z,994.57
2022-12-12T08:18:03.159Z,994.54
2022-12-12T08:19:03.131Z,994.56
2022-12-12T08:20:03.130Z,994.63
2022-12-12T08:21:03.157Z,994.60
2022-12-12T08:22:03.136Z,994.63
2022-12-12T08:23:03.093Z,994.64
2022-12-12T08:24:03.102Z,994.64
2022-12-12T08:25:03.178Z,994.66
2022-12-12T08:26:03.057Z,994.72
2022-12-12T08:27:03.104Z,994.69
2022-12-12T08:28:03.028Z,994.71
2022-12-12T08:29:03.012Z,994.71
2022-12-12T08:30:03.011Z,994.71
2022-12-12T08:31:03.026Z,994.71
2022-12-12T08:32:03.929Z,994.72
2022-12-12T08:33:07.898Z,994.72
2022-12-12T08:34:03.960Z,994.75
2022-12-12T08:35:02.962Z,994.75
2022-12-12T08:36:02.944Z,994.71
2022-12-12T08:37:02.953Z,994.71
2022-12-12T08:38:02.918Z,994.66
2022-12-12T08:39:02.931Z,994.76
2022-12-12T08:40:02.891Z,994.78
2022-12-12T08:41:02.906Z,994.82
2022-12-12T08:42:02.871Z,994.82
2022-12-12T08:43:02.859Z,994.86
2022-12-12T08:44:02.850Z,994.88
2022-12-12T08:45:02.849Z,994.93
2022-12-12T08:46:02.827Z,994.85
2022-12-12T08:47:02.858Z,994.92
2022-12-12T08:48:02.825Z,994.89
2022-12-12T08:49:02.788Z,994.86
2022-12-12T08:50:02.823Z,994.87
2022-12-12T08:51:02.769Z,994.89
2022-12-12T08:52:02.782Z,994.89
2022-12-12T08:53:02.766Z,994.94
2022-12-12T08:54:02.761Z,994.89
2022-12-12T08:55:02.757Z,994.89
2022-12-12T08:56:02.744Z,994.93
2022-12-12T08:57:02.707Z,994.92
2022-12-12T08:58:02.700Z,994.93
2022-12-12T08:59:02.677Z,994.91
2022-12-12T09:00:02.669Z,994.90
2022-12-12T09:01:02.655Z,994.94
2022-12-12T09:02:02.820Z,994.95
2022-12-12T09:03:02.673Z,994.90
2022-12-12T09:04:02.637Z,994.93
2022-12-12T09:05:02.618Z,994.91
2022-12-12T09:06:02.609Z,994.88
2022-12-12T09:07:08.283Z,994.99
2022-12-12T09:08:03.656Z,994.95
2022-12-12T09:09:02.575Z,994.92
2022-12-12T09:10:02.634Z,995.03
2022-12-12T09:11:02.641Z,995.00
2022-12-12T09:12:02.557Z,994.95
2022-12-12T09:13:02.535Z,994.94
2022-12-12T09:14:02.557Z,994.96
2022-12-12T09:15:02.507Z,995.01
2022-12-12T09:16:02.591Z,995.01
2022-12-12T09:17:02.496Z,995.03
2022-12-12T09:18:02.464Z,995.02
2022-12-12T09:19:02.487Z,995.07
2022-12-12T09:20:02.446Z,995.06
2022-12-12T09:21:02.426Z,995.03
2022-12-12T09:22:02.444Z,994.99
2022-12-12T09:23:02.444Z,995.07
2022-12-12T09:24:02.433Z,995.08
2022-12-12T09:25:02.405Z,995.01
2022-12-12T09:26:02.375Z,995.06
2022-12-12T09:27:02.382Z,995.01
2022-12-12T09:28:02.355Z,995.04
2022-12-12T09:29:02.346Z,995.03
2022-12-12T09:30:02.331Z,995.06
2022-12-12T09:31:02.384Z,995.01
2022-12-12T09:32:02.304Z,995.05
2022-12-12T09:33:02.292Z,995.07
2022-12-12T09:34:02.288Z,995.08
2022-12-12T09:35:02.276Z,995.10
2022-12-12T09:36:02.340Z,995.12
2022-12-12T09:37:02.275Z,995.19
2022-12-12T09:38:02.273Z,995.17
2022-12-12T09:39:02.233Z,995.21
2022-12-12T09:40:02.236Z,995.20
2022-12-12T09:41:02.220Z,995.21
2022-12-12T09:42:02.232Z,995.15
2022-12-12T09:43:02.187Z,995.14
2022-12-12T09:44:02.182Z,995.19
2022-12-12T09:45:02.159Z,995.14
2022-12-12T09:46:02.229Z,995.15
2022-12-12T09:47:02.133Z,995.18
2022-12-12T09:48:02.152Z,995.17
2022-12-12T09:49:02.115Z,995.12
2022-12-12T09:50:02.102Z,995.08
2022-12-12T09:51:02.132Z,995.17
2022-12-12T09:52:02.081Z,995.13
2022-12-12T09:53:02.075Z,995.15
2022-12-12T09:54:02.124Z,995.19
2022-12-12T09:55:02.042Z,995.18
2022-12-12T09:56:02.038Z,995.21
2022-12-12T09:57:02.046Z,995.17
2022-12-12T09:58:02.031Z,995.14
2022-12-12T09:59:02.000Z,995.14
2022-12-12T10:00:02.025Z,995.16
2022-12-12T10:01:02.094Z,995.15
2022-12-12T10:02:02.007Z,995.13
2022-12-12T10:03:01.951Z,995.14
2022-12-12T10:04:01.951Z,995.12
2022-12-12T10:05:01.935Z,995.13
2022-12-12T10:06:28.659Z,995.16
2022-12-12T10:07:02.919Z,995.22
2022-12-12T10:08:01.947Z,995.26
2022-12-12T10:09:01.903Z,995.19
2022-12-12T10:10:01.922Z,995.14
2022-12-12T10:11:01.878Z,995.19
2022-12-12T10:12:05.057Z,995.18
2022-12-12T10:13:02.852Z,995.21
2022-12-12T10:14:01.859Z,995.20
2022-12-12T10:15:01.825Z,995.18
2022-12-12T10:16:01.880Z,995.13
2022-12-12T10:17:01.902Z,995.15
2022-12-12T10:18:01.829Z,995.11
2022-12-12T10:19:01.782Z,995.11
2022-12-12T10:20:01.760Z,995.14
2022-12-12T10:21:01.770Z,995.16
2022-12-12T10:22:01.748Z,995.13
2022-12-12T10:23:01.752Z,995.16
2022-12-12T10:24:01.831Z,995.19
2022-12-12T10:25:01.708Z,995.17
2022-12-12T10:26:01.703Z,995.15
2022-12-12T10:27:01.688Z,995.14
2022-12-12T10:28:01.715Z,995.18
2022-12-12T10:29:01.701Z,995.14
2022-12-12T10:30:01.647Z,995.11
2022-12-12T10:31:01.649Z,995.17
2022-12-12T10:32:01.678Z,995.14
2022-12-12T10:33:01.627Z,995.18
2022-12-12T10:34:01.910Z,995.13
2022-12-12T10:35:01.627Z,995.15
2022-12-12T10:36:01.597Z,995.11
2022-12-12T10:37:01.577Z,995.14
2022-12-12T10:38:01.557Z,995.10
2022-12-12T10:39:01.548Z,995.17
2022-12-12T10:40:01.536Z,995.18
2022-12-12T10:41:01.547Z,995.16
2022-12-12T10:42:01.518Z,995.19
2022-12-12T10:43:01.507Z,995.09
2022-12-12T10:44:01.515Z,995.18
2022-12-12T10:45:01.487Z,995.14
2022-12-12T10:46:01.732Z,995.14
2022-12-12T10:47:01.498Z,995.17
2022-12-12T10:48:01.456Z,995.18
2022-12-12T10:49:01.437Z,995.18
2022-12-12T10:50:01.438Z,995.11
2022-12-12T10:51:01.425Z,995.16
2022-12-12T10:52:01.428Z,995.18
2022-12-12T10:53:01.399Z,995.17
2022-12-12T10:54:01.394Z,995.18
2022-12-12T10:55:01.375Z,995.16
2022-12-12T10:56:01.383Z,995.16
2022-12-12T10:57:01.377Z,995.17
2022-12-12T10:58:01.357Z,995.15
2022-12-12T10:59:01.350Z,995.14
2022-12-12T11:00:01.319Z,995.14
2022-12-12T11:01:01.352Z,995.13
2022-12-12T11:02:10.212Z,995.13
2022-12-12T11:03:02.444Z,995.12
2022-12-12T11:04:01.283Z,995.11
2022-12-12T11:05:01.263Z,995.08
2022-12-12T11:06:01.249Z,995.08
2022-12-12T11:07:01.264Z,995.10
2022-12-12T11:08:01.316Z,995.14
2022-12-12T11:09:01.215Z,995.10
2022-12-12T11:10:02.409Z,995.09
2022-12-12T11:11:01.203Z,995.05
2022-12-12T11:12:01.189Z,995.09
2022-12-12T11:13:01.245Z,995.16
2022-12-12T11:14:01.184Z,995.10
2022-12-12T11:15:01.146Z,995.11
2022-12-12T11:16:01.200Z,995.14
2022-12-12T11:17:01.179Z,995.14
2022-12-12T11:18:05.910Z,995.14
2022-12-12T11:19:02.168Z,995.08
2022-12-12T11:20:01.091Z,995.07
2022-12-12T11:21:01.090Z,995.12
2022-12-12T11:22:01.064Z,995.09
2022-12-12T11:23:01.062Z,995.04
2022-12-12T11:24:01.055Z,995.07
2022-12-12T11:25:01.060Z,995.10
2022-12-12T11:26:01.032Z,995.01
2022-12-12T11:27:01.014Z,995.06
2022-12-12T11:28:06.164Z,995.04
2022-12-12T11:29:02.005Z,995.00
2022-12-12T11:30:00.986Z,995.03
2022-12-12T11:31:01.015Z,995.00
2022-12-12T11:32:01.003Z,994.97
2022-12-12T11:33:00.951Z,995.04
2022-12-12T11:34:00.941Z,994.99
2022-12-12T11:35:00.930Z,995.01
2022-12-12T11:36:00.911Z,994.95
2022-12-12T11:37:00.924Z,994.93
2022-12-12T11:38:00.889Z,994.93
2022-12-12T11:39:00.880Z,994.98
2022-12-12T11:40:00.900Z,994.97
2022-12-12T11:41:00.863Z,994.96
2022-12-12T11:42:00.860Z,994.94
2022-12-12T11:43:00.831Z,994.94
2022-12-12T11:44:00.830Z,994.99
2022-12-12T11:45:00.820Z,994.94
2022-12-12T11:46:00.843Z,994.91
2022-12-12T11:47:00.805Z,994.99
2022-12-12T11:48:00.812Z,994.95
2022-12-12T11:49:00.777Z,994.86
2022-12-12T11:50:02.845Z,994.94
2022-12-12T11:51:01.741Z,994.87
2022-12-12T11:52:00.741Z,994.84
2022-12-12T11:53:00.727Z,994.87
2022-12-12T11:54:00.737Z,994.81
2022-12-12T11:55:00.725Z,994.85
2022-12-12T11:56:00.680Z,994.85
2022-12-12T11:57:00.683Z,994.85
2022-12-12T11:58:03.829Z,994.83
2022-12-12T11:59:00.697Z,994.78
2022-12-12T12:00:00.659Z,994.75
2022-12-12T12:01:00.635Z,994.77
2022-12-12T12:02:00.638Z,994.80
2022-12-12T12:03:00.644Z,994.79
2022-12-12T12:04:56.014Z,994.75
2022-12-12T12:05:55.895Z,994.71
2022-12-12T12:06:55.889Z,994.65
2022-12-12T12:07:55.887Z,994.68
2022-12-12T12:08:55.875Z,994.65
2022-12-12T12:09:55.848Z,994.65
2022-12-12T12:10:55.865Z,994.67
2022-12-12T12:11:55.855Z,994.67
2022-12-12T12:12:55.817Z,994.71
2022-12-12T12:13:55.814Z,994.69
2022-12-12T12:14:55.786Z,994.65
2022-12-12T12:15:55.788Z,994.65
2022-12-12T12:16:55.826Z,994.70
2022-12-12T12:17:55.777Z,994.67
2022-12-12T12:18:55.764Z,994.69
2022-12-12T12:19:55.746Z,994.64
2022-12-12T12:20:55.734Z,994.65
2022-12-12T12:21:55.722Z,994.66
2022-12-12T12:22:55.753Z,994.64
2022-12-12T12:23:55.702Z,994.67
2022-12-12T12:24:55.687Z,994.72
2022-12-12T12:25:55.691Z,994.66
2022-12-12T12:26:55.675Z,994.71
2022-12-12T12:27:55.689Z,994.78
2022-12-12T12:28:55.655Z,994.77